Time;durP1;ratioP1;P1;durP2;ratioP2;P2;SDS_P1;SDS_P2;PMS_P1;PMS_P2;Temp;Humidity;BMP_temperature;BMP_pressure;BME280_temperature;BME280_humidity;BME280_pressure;Samples;Min_cycle;Max_cycle;Signal;HPM_P1;HPM_P2
2022/03/22 05:13:16;;;;;;;;;;;;;;;8.38;59.86;98215.97;4265827;27;10496;-62
2022/03/22 05:15:17;;;;;;;;;;;;;;;8.36;59.97;98210.00;4258948;27;5610;-62
2022/03/22 05:17:23;;;;;;;;;;;;;;;8.41;59.62;98213.88;4241663;27;5597;-63
2022/03/22 05:19:25;;;;;;;;;;;;;;;8.49;59.22;98212.31;4243006;27;5758;-62
2022/03/22 05:21:27;;;;;;;;;;;;;;;8.52;58.92;98212.03;4245934;27;5645;-62
2022/03/22 05:23:31;;;;;;;;;;;;;;;8.50;58.94;98212.19;4246207;27;5817;-62
2022/03/22 05:25:32;;;;;;;;;;;;;;;8.42;59.12;98220.81;4247998;27;5748;-62
2022/03/22 05:27:36;;;;;;;;;;;;;;;8.10;60.05;98215.06;4246219;27;5650;-63
2022/03/22 05:29:37;;;;;;;;;;;;;;;8.23;59.64;98212.09;4252041;27;5649;-62
2022/03/22 05:31:39;;;;;;;;;;;;;;;8.33;59.71;98210.28;4245152;27;6343;-63
2022/03/22 05:33:41;;;;;;;;;;;;;;;8.43;59.10;98216.38;4246566;27;6431;-63
2022/03/22 05:35:43;;;;;;;;;;;;;;;8.47;58.98;98212.47;4246297;27;5618;-62
2022/03/22 05:37:45;;;;;;;;;;;;;;;8.51;58.50;98213.84;4246730;27;6433;-63
2022/03/22 05:39:46;;;;;;;;;;;;;;;8.53;58.57;98219.81;4245834;27;5682;-63
2022/03/22 05:41:48;;;;;;;;;;;;;;;8.52;58.67;98219.94;4228326;28;5933;-63
2022/03/22 05:43:49;;;;;;;;;;;;;;;8.54;58.48;98231.16;4245006;27;5865;-63
2022/03/22 05:45:52;;;;;;;;;;;;;;;8.54;58.95;98231.16;4250659;27;5916;-63
2022/03/22 05:47:54;;;;;;;;;;;;;;;8.50;58.87;98232.44;4246795;27;5795;-63
2022/03/22 05:49:55;;;;;;;;;;;;;;;8.47;58.97;98233.53;4244767;27;5708;-63
2022/03/22 05:51:57;;;;;;;;;;;;;;;8.50;58.83;98235.91;4258037;27;5629;-63
2022/03/22 05:53:59;;;;;;;;;;;;;;;8.51;58.82;98239.38;4244926;27;6335;-63
2022/03/22 05:56:01;;;;;;;;;;;;;;;8.45;59.20;98241.59;4241435;27;6532;-63
2022/03/22 05:58:03;;;;;;;;;;;;;;;8.46;59.32;98242.44;4246902;27;5667;-63
2022/03/22 06:00:07;;;;;;;;;;;;;;;8.50;59.80;98246.47;4246261;27;5772;-63
2022/03/22 06:02:09;;;;;;;;;;;;;;;8.49;59.94;98247.41;4246296;27;5663;-63
2022/03/22 06:04:11;;;;;;;;;;;;;;;8.55;60.43;98248.66;4245363;27;5663;-63
2022/03/22 06:06:13;;;;;;;;;;;;;;;8.54;60.87;98247.81;4245125;27;5835;-63
2022/03/22 06:08:15;;;;;;;;;;;;;;;8.57;61.21;98244.88;4246056;27;5764;-63
2022/03/22 06:10:17;;;;;;;;;;;;;;;8.56;61.64;98251.13;4245423;27;5763;-63
2022/03/22 06:12:19;;;;;;;;;;;;;;;8.44;62.06;98244.38;4246191;27;5728;-63
2022/03/22 06:14:21;;;;;;;;;;;;;;;8.43;62.50;98248.81;4232816;28;5230;-63
2022/03/22 06:16:22;;;;;;;;;;;;;;;8.44;62.56;98250.47;4234274;28;8464;-63
2022/03/22 06:18:24;;;;;;;;;;;;;;;8.48;63.05;98260.72;4233735;28;5729;-64
2022/03/22 06:20:30;;;;;;;;;;;;;;;8.48;63.05;98253.66;4235739;28;5678;-63
2022/03/22 06:22:31;;;;;;;;;;;;;;;8.50;63.18;98259.63;4233462;28;5720;-63
2022/03/22 06:24:33;;;;;;;;;;;;;;;8.51;63.17;98250.75;4233106;28;5828;-62
2022/03/22 06:26:35;;;;;;;;;;;;;;;8.52;63.61;98262.94;4229823;28;5837;-63
2022/03/22 06:28:37;;;;;;;;;;;;;;;8.48;63.86;98266.81;4228681;28;5674;-64
2022/03/22 06:30:38;;;;;;;;;;;;;;;8.46;64.44;98260.88;4233075;28;5675;-63
2022/03/22 06:32:41;;;;;;;;;;;;;;;8.39;64.31;98258.00;4234801;27;5655;-64
2022/03/22 06:34:47;;;;;;;;;;;;;;;8.51;63.71;98268.38;4234677;28;5793;-64
2022/03/22 06:36:49;;;;;;;;;;;;;;;8.56;63.33;98272.22;4235408;28;5732;-64
2022/03/22 06:38:50;;;;;;;;;;;;;;;8.51;64.50;98266.56;4231876;28;5675;-63
2022/03/22 06:40:53;;;;;;;;;;;;;;;8.49;64.17;98272.94;4232410;28;5713;-66
2022/03/22 06:42:56;;;;;;;;;;;;;;;8.50;63.50;98270.19;4227807;28;5742;-66
2022/03/22 06:44:58;;;;;;;;;;;;;;;8.56;63.41;98263.47;4233829;28;5601;-66
2022/03/22 06:47:00;;;;;;;;;;;;;;;8.58;63.10;98275.53;4232713;28;6586;-66
2022/03/22 06:49:01;;;;;;;;;;;;;;;8.62;62.98;98273.47;4235133;28;7008;-66
2022/03/22 06:51:03;;;;;;;;;;;;;;;8.57;63.65;98279.16;4235274;28;5665;-66
2022/03/22 06:53:07;;;;;;;;;;;;;;;8.37;65.14;98285.44;4235190;28;5749;-66
2022/03/22 06:55:11;;;;;;;;;;;;;;;8.39;64.76;98284.34;4235127;28;5649;-66
2022/03/22 06:57:13;;;;;;;;;;;;;;;8.12;66.40;98285.06;4235301;28;5716;-66
2022/03/22 06:59:16;;;;;;;;;;;;;;;8.38;64.29;98285.34;4234956;27;5745;-66
2022/03/22 07:01:17;;;;;;;;;;;;;;;8.58;63.51;98286.09;4234881;27;5690;-66
2022/03/22 07:03:19;;;;;;;;;;;;;;;8.61;63.95;98285.81;4234656;27;5625;-66
2022/03/22 07:05:22;;;;;;;;;;;;;;;8.59;65.29;98289.53;4234931;28;5766;-66
2022/03/22 07:07:24;;;;;;;;;;;;;;;8.62;64.94;98287.47;4234904;27;5650;-66
2022/03/22 07:09:25;;;;;;;;;;;;;;;8.64;64.83;98293.44;4234947;28;5746;-66
2022/03/22 07:13:47;;;;;;;;;;;;;;;8.47;64.56;98286.25;4219071;28;5080;-66
2022/03/22 07:15:51;;;;;;;;;;;;;;;8.53;65.16;98298.88;4235016;27;5650;-66
2022/03/22 07:17:54;;;;;;;;;;;;;;;8.62;64.34;98295.38;4234624;28;5674;-66
2022/03/22 07:19:56;;;;;;;;;;;;;;;8.64;64.51;98296.06;4234753;28;5693;-66
2022/03/22 07:21:57;;;;;;;;;;;;;;;8.60;64.71;98297.31;4234776;28;5653;-66
2022/03/22 07:23:59;;;;;;;;;;;;;;;8.41;64.92;98298.22;4234724;27;5662;-66
2022/03/22 07:26:01;;;;;;;;;;;;;;;8.54;64.34;98299.69;4215434;28;6308;-66
2022/03/22 07:28:03;;;;;;;;;;;;;;;8.53;64.85;98292.78;4234449;28;6366;-66
2022/03/22 07:30:06;;;;;;;;;;;;;;;8.64;63.04;98293.44;4234685;28;6454;-66
2022/03/22 07:32:08;;;;;;;;;;;;;;;8.54;63.92;98297.91;4216038;28;5615;-66
2022/03/22 07:34:15;;;;;;;;;;;;;;;8.45;64.11;98294.31;4234290;27;5686;-66
2022/03/22 07:36:17;;;;;;;;;;;;;;;8.61;62.97;98299.00;4234627;28;5642;-66
2022/03/22 07:38:38;;;;;;;;;;;;;;;8.65;60.92;98299.53;4234533;28;5654;-66
2022/03/22 07:40:40;;;;;;;;;;;;;;;8.70;61.09;98295.47;4234167;28;5646;-66
2022/03/22 07:42:42;;;;;;;;;;;;;;;8.75;60.63;98301.16;4234504;28;5709;-66
2022/03/22 07:44:45;;;;;;;;;;;;;;;8.58;64.75;98304.53;4233186;28;5645;-66
2022/03/22 07:46:47;;;;;;;;;;;;;;;8.19;64.99;98301.16;4215894;28;5623;-66
2022/03/22 07:48:51;;;;;;;;;;;;;;;8.43;64.35;98305.97;4233952;28;5642;-66
2022/03/22 07:53:12;;;;;;;;;;;;;;;8.36;65.26;98302.22;4233791;28;5095;-66
2022/03/22 07:55:14;;;;;;;;;;;;;;;8.56;62.76;98306.47;4234041;28;5712;-66
2022/03/22 07:57:16;;;;;;;;;;;;;;;8.74;62.31;98299.50;4234090;27;6353;-66
2022/03/22 07:59:18;;;;;;;;;;;;;;;8.51;61.62;98306.09;4233935;28;5785;-66
2022/03/22 08:01:20;;;;;;;;;;;;;;;8.74;61.51;98317.13;4232644;28;5831;-66
2022/03/22 08:03:23;;;;;;;;;;;;;;;8.66;54.55;98315.19;4233922;27;5638;-66
2022/03/22 08:05:26;;;;;;;;;;;;;;;8.70;55.52;98313.94;4234142;27;5776;-66
2022/03/22 08:07:28;;;;;;;;;;;;;;;8.41;59.52;98316.66;4234035;28;5662;-67
2022/03/22 08:09:30;;;;;;;;;;;;;;;8.45;59.08;98315.38;4233976;28;5658;-66
2022/03/22 08:11:32;;;;;;;;;;;;;;;8.66;59.53;98320.47;4233506;28;5658;-66
2022/03/22 08:13:34;;;;;;;;;;;;;;;8.44;57.40;98324.28;4233833;28;5871;-66
2022/03/22 08:15:36;;;;;;;;;;;;;;;8.46;54.88;98321.50;4233824;27;6480;-66
2022/03/22 08:17:39;;;;;;;;;;;;;;;8.63;53.56;98317.31;4233324;28;6505;-66
2022/03/22 08:19:42;;;;;;;;;;;;;;;8.70;53.42;98313.09;4234057;28;5645;-66
2022/03/22 08:21:45;;;;;;;;;;;;;;;8.78;51.97;98321.13;4232550;28;5594;-66
2022/03/22 08:23:47;;;;;;;;;;;;;;;8.46;51.07;98324.13;4233562;28;5654;-66
2022/03/22 08:25:51;;;;;;;;;;;;;;;8.62;51.41;98319.09;4232646;28;5078;-67
2022/03/22 08:27:54;;;;;;;;;;;;;;;8.68;50.91;98325.59;4233651;27;5701;-66
2022/03/22 08:29:55;;;;;;;;;;;;;;;8.75;50.48;98326.69;4233861;28;5768;-66
2022/03/22 08:31:57;;;;;;;;;;;;;;;8.73;55.88;98329.47;4233942;28;5096;-66
2022/03/22 08:33:59;;;;;;;;;;;;;;;8.72;56.31;98330.47;4232767;28;5605;-66
2022/03/22 08:36:01;;;;;;;;;;;;;;;8.75;59.72;98324.88;4199535;28;5650;-66
2022/03/22 08:38:02;;;;;;;;;;;;;;;8.66;61.38;98335.47;4233309;28;5665;-66
2022/03/22 08:40:05;;;;;;;;;;;;;;;8.73;61.73;98323.38;4232378;28;5660;-66
2022/03/22 08:42:07;;;;;;;;;;;;;;;8.87;60.83;98322.06;4233502;28;5657;-65
2022/03/22 08:44:08;;;;;;;;;;;;;;;8.94;59.83;98315.22;4233311;28;5658;-66
2022/03/22 08:46:11;;;;;;;;;;;;;;;8.90;58.88;98314.69;4233426;28;5736;-66
2022/03/22 08:48:13;;;;;;;;;;;;;;;8.95;56.34;98319.53;4233256;28;5638;-66
2022/03/22 08:50:17;;;;;;;;;;;;;;;8.90;58.46;98319.97;4232246;28;5738;-65
2022/03/22 08:52:19;;;;;;;;;;;;;;;8.99;57.73;98315.63;4233388;28;5643;-65
2022/03/22 08:54:22;;;;;;;;;;;;;;;8.79;58.12;98321.97;4232056;28;5609;-65
2022/03/22 08:56:24;;;;;;;;;;;;;;;9.00;58.16;98317.28;4231871;28;5664;-65
2022/03/22 08:58:30;;;;;;;;;;;;;;;9.04;61.16;98318.66;4233463;28;5637;-65
2022/03/22 09:00:36;;;;;;;;;;;;;;;8.96;65.47;98315.94;4233576;27;5916;-66
2022/03/22 09:02:40;;;;;;;;;;;;;;;9.00;64.22;98312.84;4232938;27;5658;-66
2022/03/22 09:07:06;;;;;;;;;;;;;;;9.14;64.03;98315.97;4233224;28;5670;-66
2022/03/22 09:09:10;;;;;;;;;;;;;;;9.25;63.50;98313.97;4233385;28;5646;-66
2022/03/22 09:11:12;;;;;;;;;;;;;;;9.31;61.18;98315.19;4233078;27;5884;-66
2022/03/22 09:13:14;;;;;;;;;;;;;;;9.28;61.21;98313.66;4232821;28;5728;-66
2022/03/22 09:15:20;;;;;;;;;;;;;;;9.20;60.59;98320.66;4219521;28;5762;-66
2022/03/22 09:17:22;;;;;;;;;;;;;;;9.20;59.95;98326.78;4216243;28;5791;-66
2022/03/22 09:19:24;;;;;;;;;;;;;;;9.18;62.42;98328.75;4214932;28;6447;-66
2022/03/22 09:21:48;;;;;;;;;;;;;;;9.07;64.54;98321.00;4216225;28;5691;-65
2022/03/22 09:23:50;;;;;;;;;;;;;;;9.03;65.10;98324.91;4216001;28;5687;-65
2022/03/22 09:25:53;;;;;;;;;;;;;;;8.97;65.24;98325.50;4216342;28;5702;-65
2022/03/22 09:27:56;;;;;;;;;;;;;;;8.87;67.05;98327.34;4214997;28;5791;-65
2022/03/22 09:29:58;;;;;;;;;;;;;;;8.95;66.21;98322.19;4216256;28;5711;-65
2022/03/22 09:31:59;;;;;;;;;;;;;;;8.98;65.44;98321.88;4216014;28;5671;-65
2022/03/22 09:34:02;;;;;;;;;;;;;;;8.91;65.99;98323.44;4216258;28;5660;-65
2022/03/22 09:36:04;;;;;;;;;;;;;;;8.65;66.12;98315.34;4216137;28;5727;-65
2022/03/22 09:38:06;;;;;;;;;;;;;;;8.82;66.36;98316.38;4216095;28;5659;-65
2022/03/22 09:40:10;;;;;;;;;;;;;;;8.94;62.46;98313.41;4216250;28;6349;-65
2022/03/22 09:42:12;;;;;;;;;;;;;;;9.18;58.63;98310.25;4216259;28;6360;-65
2022/03/22 09:44:18;;;;;;;;;;;;;;;9.29;54.54;98298.69;4216093;28;5773;-65
2022/03/22 09:46:22;;;;;;;;;;;;;;;9.29;51.51;98304.78;4215799;28;5675;-65
2022/03/22 09:48:25;;;;;;;;;;;;;;;9.32;51.27;98304.47;4216934;28;5763;-65
2022/03/22 09:52:49;;;;;;;;;;;;;;;9.50;50.17;98295.75;4233975;28;5650;-65
2022/03/22 09:54:50;;;;;;;;;;;;;;;9.49;46.01;98289.63;4236004;28;5662;-65
2022/03/22 09:56:55;;;;;;;;;;;;;;;9.49;48.32;98294.91;4236324;28;6116;-66
2022/03/22 09:58:58;;;;;;;;;;;;;;;9.34;53.48;98291.13;4234545;28;5621;-65
2022/03/22 10:01:00;;;;;;;;;;;;;;;9.55;56.07;98288.22;4235667;27;5658;-65
2022/03/22 10:03:02;;;;;;;;;;;;;;;9.30;57.70;98295.88;4235717;28;5666;-65
2022/03/22 10:05:04;;;;;;;;;;;;;;;9.55;57.22;98304.06;4235890;27;5705;-65
2022/03/22 10:07:15;;;;;;;;;;;;;;;9.60;58.79;98292.03;4236113;27;5671;-65
2022/03/22 10:09:29;;;;;;;;;;;;;;;9.63;58.49;98297.06;4234851;28;5622;-65
2022/03/22 10:11:39;;;;;;;;;;;;;;;9.61;58.26;98292.88;4234336;28;5099;-64
2022/03/22 10:13:57;;;;;;;;;;;;;;;9.67;58.32;98288.81;4235762;28;5676;-65
2022/03/22 10:16:04;;;;;;;;;;;;;;;9.58;58.32;98283.47;4235983;28;5747;-65
2022/03/22 10:18:09;;;;;;;;;;;;;;;9.65;59.07;98288.97;4235650;28;5649;-64
2022/03/22 10:20:24;;;;;;;;;;;;;;;9.79;58.04;98283.16;4235926;27;5646;-65
2022/03/22 10:22:28;;;;;;;;;;;;;;;9.85;57.43;98282.56;4235827;28;5649;-65
2022/03/22 10:24:29;;;;;;;;;;;;;;;9.88;57.27;98282.25;4234795;28;5828;-65
2022/03/22 10:26:33;;;;;;;;;;;;;;;9.95;57.36;98281.63;4235623;28;6957;-64
2022/03/22 10:28:36;;;;;;;;;;;;;;;9.76;57.38;98275.53;4235623;28;5733;-65
2022/03/22 10:30:38;;;;;;;;;;;;;;;9.83;56.68;98278.38;4235422;27;5641;-65
2022/03/22 10:32:51;;;;;;;;;;;;;;;9.86;57.05;98278.09;4235189;28;5817;-64
2022/03/22 10:34:53;;;;;;;;;;;;;;;9.81;57.41;98269.78;4235409;27;5642;-65
2022/03/22 10:36:55;;;;;;;;;;;;;;;9.92;56.49;98269.56;4235186;28;5748;-65
2022/03/22 10:39:02;;;;;;;;;;;;;;;9.91;56.50;98267.91;4235407;28;5826;-64
2022/03/22 10:41:06;;;;;;;;;;;;;;;9.92;56.66;98262.47;4235281;28;5673;-64
2022/03/22 10:43:10;;;;;;;;;;;;;;;10.02;57.43;98266.84;4234113;28;5596;-65
2022/03/22 10:45:11;;;;;;;;;;;;;;;9.94;56.76;98262.31;4235339;28;5646;-64
2022/03/22 10:47:23;;;;;;;;;;;;;;;10.00;57.21;98258.22;4235243;28;5709;-65
2022/03/22 10:49:26;;;;;;;;;;;;;;;9.92;56.97;98254.53;4234892;28;5645;-65
2022/03/22 10:51:50;;;;;;;;;;;;;;;9.76;58.13;98259.69;4235117;28;6364;-64
2022/03/22 10:53:52;;;;;;;;;;;;;;;9.67;58.21;98260.59;4234992;28;5662;-64
2022/03/22 10:55:57;;;;;;;;;;;;;;;9.84;57.65;98259.75;4233978;28;5601;-64
2022/03/22 10:58:01;;;;;;;;;;;;;;;9.96;56.55;98248.94;4235188;28;5650;-64
2022/03/22 11:00:07;;;;;;;;;;;;;;;10.07;56.30;98246.88;4234944;28;5660;-65
2022/03/22 11:02:11;;;;;;;;;;;;;;;10.19;56.57;98247.44;4234910;28;5654;-67
2022/03/22 11:04:17;;;;;;;;;;;;;;;10.31;56.02;98251.56;4234623;27;5749;-65
2022/03/22 11:06:21;;;;;;;;;;;;;;;10.26;56.18;98247.69;4235023;28;5643;-65
2022/03/22 11:08:25;;;;;;;;;;;;;;;10.23;55.98;98246.22;4233717;28;5675;-64
2022/03/22 11:10:30;;;;;;;;;;;;;;;10.22;55.61;98244.56;4234770;27;5706;-65
2022/03/22 11:12:34;;;;;;;;;;;;;;;10.14;56.33;98245.28;4234494;28;5761;-64
2022/03/22 11:14:37;;;;;;;;;;;;;;;9.91;56.49;98247.59;4226700;27;6392;-65
2022/03/22 11:16:40;;;;;;;;;;;;;;;10.14;56.51;98247.09;4217835;28;5774;-65
2022/03/22 11:18:42;;;;;;;;;;;;;;;10.31;55.85;98248.09;4217621;28;5667;-65
2022/03/22 11:20:48;;;;;;;;;;;;;;;10.33;55.44;98239.00;4216775;28;6240;-65
2022/03/22 11:23:02;;;;;;;;;;;;;;;10.24;55.57;98237.28;4217767;28;6340;-65
2022/03/22 11:25:11;;;;;;;;;;;;;;;10.37;55.14;98235.06;4216486;28;5730;-65
2022/03/22 11:27:13;;;;;;;;;;;;;;;10.46;55.40;98236.75;4217519;28;5663;-65
2022/03/22 11:29:19;;;;;;;;;;;;;;;10.42;54.50;98235.44;4216423;28;5770;-64
2022/03/22 11:31:26;;;;;;;;;;;;;;;10.51;53.15;98233.63;4217628;28;5821;-64
2022/03/22 11:35:54;;;;;;;;;;;;;;;10.82;53.85;98228.66;4217421;28;5684;-65
2022/03/22 11:38:00;;;;;;;;;;;;;;;10.41;54.81;98225.81;4217590;28;5697;-64
2022/03/22 11:42:25;;;;;;;;;;;;;;;10.71;54.68;98218.38;4216838;28;5683;-64
2022/03/22 11:44:34;;;;;;;;;;;;;;;10.69;54.47;98215.88;4217604;28;5775;-64
2022/03/22 11:46:38;;;;;;;;;;;;;;;10.70;54.05;98211.41;4217256;28;5675;-65
2022/03/22 11:48:40;;;;;;;;;;;;;;;10.83;53.81;98200.38;4215636;28;5702;-65
2022/03/22 11:50:44;;;;;;;;;;;;;;;10.98;53.74;98202.25;4216094;28;5659;-65
2022/03/22 11:52:58;;;;;;;;;;;;;;;11.00;53.18;98202.94;4232019;28;6320;-65
2022/03/22 11:55:11;;;;;;;;;;;;;;;11.02;53.04;98203.59;4233129;28;5612;-65
2022/03/22 11:57:16;;;;;;;;;;;;;;;11.01;53.94;98201.13;4234045;28;5829;-65
2022/03/22 11:59:19;;;;;;;;;;;;;;;11.09;52.84;98199.28;4234362;27;5654;-65
2022/03/22 12:01:21;;;;;;;;;;;;;;;11.15;53.34;98189.06;4233990;27;5669;-65
2022/03/22 12:03:30;;;;;;;;;;;;;;;11.21;52.99;98193.69;4233806;28;5638;-65
2022/03/22 12:05:32;;;;;;;;;;;;;;;11.23;52.88;98187.25;4234230;28;5645;-65
2022/03/22 12:07:37;;;;;;;;;;;;;;;11.24;52.38;98190.75;4234276;28;5646;-65
2022/03/22 12:09:43;;;;;;;;;;;;;;;11.22;52.45;98190.91;4232926;27;5650;-65
2022/03/22 12:11:50;;;;;;;;;;;;;;;11.06;53.09;98183.75;4229666;27;5869;-65
2022/03/22 12:13:52;;;;;;;;;;;;;;;11.19;52.93;98185.91;4230041;28;5647;-65
2022/03/22 12:16:01;;;;;;;;;;;;;;;11.16;52.81;98185.41;4234015;28;5639;-65
2022/03/22 12:18:03;;;;;;;;;;;;;;;11.19;53.09;98185.09;4232697;28;5658;-65
2022/03/22 12:20:09;;;;;;;;;;;;;;;11.13;52.62;98175.16;4233849;28;5785;-65
2022/03/22 12:22:10;;;;;;;;;;;;;;;11.28;51.69;98176.16;4230563;28;5629;-65
2022/03/22 12:24:12;;;;;;;;;;;;;;;11.37;51.82;98180.50;4233865;28;5060;-65
2022/03/22 12:26:14;;;;;;;;;;;;;;;11.44;51.73;98170.91;4232872;27;5770;-65
2022/03/22 12:28:16;;;;;;;;;;;;;;;11.57;51.09;98173.06;4232030;27;5678;-65
2022/03/22 12:30:20;;;;;;;;;;;;;;;11.56;51.00;98161.63;4231183;28;5651;-65
2022/03/22 12:32:26;;;;;;;;;;;;;;;11.64;50.95;98158.13;4232632;28;5670;-65
2022/03/22 12:34:27;;;;;;;;;;;;;;;11.63;50.46;98156.47;4233157;28;5646;-66
2022/03/22 12:36:29;;;;;;;;;;;;;;;11.60;50.66;98152.34;4232587;28;5685;-65
2022/03/22 12:38:31;;;;;;;;;;;;;;;11.56;49.88;98144.91;4233305;28;5657;-65
2022/03/22 12:40:33;;;;;;;;;;;;;;;11.71;49.70;98148.53;4230929;28;5816;-66
2022/03/22 12:42:35;;;;;;;;;;;;;;;11.63;49.69;98145.88;4232518;27;5877;-66
2022/03/22 12:44:38;;;;;;;;;;;;;;;11.65;49.55;98143.91;4233224;27;5642;-66
2022/03/22 12:47:01;;;;;;;;;;;;;;;11.78;48.52;98149.53;4230902;28;5601;-66
2022/03/22 12:49:03;;;;;;;;;;;;;;;11.82;48.94;98139.47;4232478;28;5674;-65
2022/03/22 12:51:05;;;;;;;;;;;;;;;11.77;49.18;98131.13;4232543;27;5781;-65
2022/03/22 12:53:07;;;;;;;;;;;;;;;11.78;48.87;98132.78;4231297;28;5662;-66
2022/03/22 12:55:11;;;;;;;;;;;;;;;11.73;48.57;98130.66;4232676;28;5694;-65
2022/03/22 12:57:15;;;;;;;;;;;;;;;11.77;49.06;98124.00;4232917;28;5662;-65
2022/03/22 12:59:22;;;;;;;;;;;;;;;11.79;47.86;98124.72;4232554;28;5666;-65
2022/03/22 13:01:24;;;;;;;;;;;;;;;11.76;48.13;98124.19;4232119;28;5681;-65
2022/03/22 13:03:29;;;;;;;;;;;;;;;11.90;48.32;98127.03;4232132;28;5813;-66
2022/03/22 13:05:32;;;;;;;;;;;;;;;11.99;47.03;98116.38;4230258;28;5944;-66
2022/03/22 13:07:48;;;;;;;;;;;;;;;12.02;48.56;98113.41;4229105;28;6872;-65
2022/03/22 13:12:16;;;;;;;;;;;;;;;12.08;47.82;98110.06;4230157;28;5756;-66
2022/03/22 13:16:39;;;;;;;;;;;;;;;12.15;44.01;98103.09;4230621;28;5661;-66
2022/03/22 13:18:54;;;;;;;;;;;;;;;12.19;43.54;98101.75;4232701;27;5757;-66
2022/03/22 13:21:01;;;;;;;;;;;;;;;12.22;43.24;98104.06;4229997;28;5658;-66
2022/03/22 13:23:04;;;;;;;;;;;;;;;12.19;43.25;98099.91;4233695;28;5666;-66
2022/03/22 13:25:10;;;;;;;;;;;;;;;12.16;43.14;98097.63;4232467;28;5656;-65
2022/03/22 13:27:13;;;;;;;;;;;;;;;12.15;43.51;98106.56;4233863;28;5662;-66
2022/03/22 13:29:18;;;;;;;;;;;;;;;12.20;42.95;98095.44;4236425;28;5840;-66
2022/03/22 13:31:29;;;;;;;;;;;;;;;12.19;43.00;98094.63;4236419;27;5649;-65
2022/03/22 13:33:35;;;;;;;;;;;;;;;12.15;42.78;98090.66;4236159;28;5744;-65
2022/03/22 13:35:38;;;;;;;;;;;;;;;12.26;43.08;98088.66;4234912;28;5741;-65
2022/03/22 13:37:48;;;;;;;;;;;;;;;12.28;43.54;98092.78;4234647;28;5673;-64
2022/03/22 13:40:02;;;;;;;;;;;;;;;12.39;42.70;98079.13;4235343;28;5881;-64
2022/03/22 13:42:24;;;;;;;;;;;;;;;12.12;43.63;98083.06;4233657;28;6864;-64
2022/03/22 13:44:27;;;;;;;;;;;;;;;12.16;44.42;98083.53;4235337;28;5939;-65
2022/03/22 13:46:29;;;;;;;;;;;;;;;12.21;44.92;98083.84;4235518;28;7026;-64
2022/03/22 13:48:30;;;;;;;;;;;;;;;12.36;45.30;98074.19;4236098;28;5718;-64
2022/03/22 13:50:38;;;;;;;;;;;;;;;12.24;43.68;98064.97;4219369;28;5081;-64
2022/03/22 13:52:41;;;;;;;;;;;;;;;12.21;42.22;98068.75;4234604;28;7728;-64
2022/03/22 13:54:46;;;;;;;;;;;;;;;12.38;43.87;98060.75;4236446;28;5663;-65
2022/03/22 13:56:49;;;;;;;;;;;;;;;12.44;44.40;98060.03;4234600;28;5658;-65
2022/03/22 13:58:51;;;;;;;;;;;;;;;12.54;44.08;98064.13;4235105;28;5671;-65
2022/03/22 14:00:55;;;;;;;;;;;;;;;12.43;44.72;98058.38;4233716;28;5633;-64
2022/03/22 14:03:00;;;;;;;;;;;;;;;12.46;43.89;98056.22;4235910;28;5673;-64
2022/03/22 14:05:06;;;;;;;;;;;;;;;12.50;43.63;98054.06;4235222;28;5705;-64
2022/03/22 14:07:11;;;;;;;;;;;;;;;12.51;43.96;98053.88;4235435;28;5662;-64
2022/03/22 14:09:12;;;;;;;;;;;;;;;12.54;44.01;98050.03;4234708;28;5748;-64
2022/03/22 14:11:16;;;;;;;;;;;;;;;12.59;43.30;98050.34;4234599;27;5639;-65
2022/03/22 14:13:20;;;;;;;;;;;;;;;12.55;43.88;98054.34;4233317;28;5667;-64
2022/03/22 14:15:24;;;;;;;;;;;;;;;12.54;45.54;98047.38;4235081;27;5713;-65
2022/03/22 14:17:26;;;;;;;;;;;;;;;12.60;45.33;98044.03;4235419;27;5709;-64
2022/03/22 14:19:27;;;;;;;;;;;;;;;12.67;45.94;98042.31;4235270;27;5604;-64
2022/03/22 14:21:29;;;;;;;;;;;;;;;12.71;45.70;98048.13;4233175;28;5788;-64
2022/03/22 14:23:31;;;;;;;;;;;;;;;12.75;44.45;98041.44;4234621;27;5675;-65
2022/03/22 14:25:36;;;;;;;;;;;;;;;12.74;44.38;98037.97;4234648;28;5725;-65
2022/03/22 14:27:39;;;;;;;;;;;;;;;12.69;43.61;98031.56;4234808;28;5665;-64
2022/03/22 14:29:41;;;;;;;;;;;;;;;12.54;44.60;98040.25;4229241;28;5733;-64
2022/03/22 14:31:44;;;;;;;;;;;;;;;12.74;44.48;98037.97;4233598;28;5816;-64
2022/03/22 14:33:46;;;;;;;;;;;;;;;12.67;43.61;98033.53;4234537;28;5726;-65
2022/03/22 14:35:50;;;;;;;;;;;;;;;12.61;43.47;98035.09;4234925;27;5744;-65
2022/03/22 14:37:51;;;;;;;;;;;;;;;12.41;43.62;98033.88;4235015;27;5673;-64
2022/03/22 14:39:54;;;;;;;;;;;;;;;12.53;43.04;98028.00;4228036;28;5818;-65
2022/03/22 14:42:00;;;;;;;;;;;;;;;12.64;43.82;98021.47;4225630;28;5755;-65
2022/03/22 14:44:02;;;;;;;;;;;;;;;12.59;42.95;98020.34;4231743;28;5647;-65
2022/03/22 14:46:04;;;;;;;;;;;;;;;12.61;43.51;98013.03;4234962;28;5655;-65
2022/03/22 14:48:08;;;;;;;;;;;;;;;12.67;41.92;98013.13;4231465;28;5690;-65
2022/03/22 14:50:10;;;;;;;;;;;;;;;12.43;43.25;98021.25;4233185;28;5625;-65
2022/03/22 14:54:35;;;;;;;;;;;;;;;12.68;42.13;98014.78;4234603;28;5763;-64
2022/03/22 14:58:59;;;;;;;;;;;;;;;12.52;42.50;98015.72;4234146;28;5789;-64
2022/03/22 15:01:01;;;;;;;;;;;;;;;12.69;42.60;98005.84;4232949;28;5666;-65
2022/03/22 15:03:04;;;;;;;;;;;;;;;12.66;42.34;98005.34;4234588;27;5663;-65
2022/03/22 15:05:31;;;;;;;;;;;;;;;12.76;42.19;98004.13;4232236;28;5817;-65
2022/03/22 15:07:29;;;;;;;;;;;;;;;12.80;42.64;98008.09;4234154;28;5659;-64
2022/03/22 15:09:30;;;;;;;;;;;;;;;12.80;42.97;98002.78;4233012;28;5646;-65
2022/03/22 15:11:35;;;;;;;;;;;;;;;12.81;43.02;97998.31;4233243;28;5670;-65
2022/03/22 15:13:37;;;;;;;;;;;;;;;12.90;42.86;98004.34;4232221;28;5682;-64
2022/03/22 15:15:40;;;;;;;;;;;;;;;12.86;42.42;97998.56;4233745;28;5844;-65
2022/03/22 15:17:43;;;;;;;;;;;;;;;12.90;42.64;97997.22;4232403;27;5650;-64
2022/03/22 15:19:44;;;;;;;;;;;;;;;13.02;43.21;97992.28;4233405;27;5849;-64
2022/03/22 15:21:46;;;;;;;;;;;;;;;13.09;43.74;97986.09;4221306;28;5710;-64
2022/03/22 15:23:48;;;;;;;;;;;;;;;13.09;43.49;97990.59;4224774;28;5101;-65
2022/03/22 15:25:51;;;;;;;;;;;;;;;13.13;42.96;97991.88;4225485;28;7848;-64
2022/03/22 15:27:53;;;;;;;;;;;;;;;13.06;42.64;97988.31;4233310;28;5689;-64
2022/03/22 15:29:56;;;;;;;;;;;;;;;13.09;42.00;97987.94;4233538;27;5749;-65
2022/03/22 15:32:08;;;;;;;;;;;;;;;12.88;41.11;97983.28;4230502;28;5819;-65
2022/03/22 15:34:10;;;;;;;;;;;;;;;12.93;42.64;97975.66;4233530;27;5674;-65
2022/03/22 15:36:12;;;;;;;;;;;;;;;13.10;42.29;97977.13;4232553;28;6282;-65
2022/03/22 15:38:15;;;;;;;;;;;;;;;13.20;42.13;97973.44;4232183;28;6348;-65
2022/03/22 15:40:17;;;;;;;;;;;;;;;13.24;42.12;97972.88;4223966;28;6162;-65
2022/03/22 15:42:19;;;;;;;;;;;;;;;13.19;41.56;97969.94;4211084;28;5620;-65
2022/03/22 15:44:21;;;;;;;;;;;;;;;13.20;42.09;97968.94;4226043;28;5766;-65
2022/03/22 15:46:22;;;;;;;;;;;;;;;13.21;40.78;97970.59;4230813;28;5658;-65
2022/03/22 15:48:24;;;;;;;;;;;;;;;13.16;40.93;97962.31;4233842;28;5645;-66
2022/03/22 15:50:29;;;;;;;;;;;;;;;13.27;40.78;97966.41;4229502;27;5096;-66
2022/03/22 15:52:31;;;;;;;;;;;;;;;13.22;39.63;97964.28;4230594;28;5630;-66
2022/03/22 15:54:37;;;;;;;;;;;;;;;13.29;40.81;97970.53;4220633;27;5800;-67
2022/03/22 15:56:39;;;;;;;;;;;;;;;13.33;39.81;97977.09;4230748;28;5711;-64
2022/03/22 15:58:42;;;;;;;;;;;;;;;13.27;39.94;97966.41;4230127;28;5663;-64
2022/03/22 16:00:44;;;;;;;;;;;;;;;13.19;39.27;97961.97;4222762;28;5754;-65
2022/03/22 16:02:47;;;;;;;;;;;;;;;13.20;40.18;97966.28;4225907;28;5833;-65
2022/03/22 16:04:49;;;;;;;;;;;;;;;13.20;39.71;97965.47;4228754;28;5659;-65
2022/03/22 16:06:51;;;;;;;;;;;;;;;13.13;39.29;97960.00;4228243;27;5861;-64
2022/03/22 16:08:55;;;;;;;;;;;;;;;13.13;39.40;97960.84;4229125;27;5746;-65
2022/03/22 16:10:57;;;;;;;;;;;;;;;13.06;38.33;97961.75;4233197;27;5746;-65
2022/03/22 16:12:59;;;;;;;;;;;;;;;13.00;39.64;97963.28;4232399;27;5084;-65
2022/03/22 16:15:02;;;;;;;;;;;;;;;13.12;39.58;97958.34;4229038;27;5801;-63
2022/03/22 16:17:05;;;;;;;;;;;;;;;13.13;39.22;97960.00;4238066;27;5842;-64
2022/03/22 16:19:10;;;;;;;;;;;;;;;13.10;38.74;97955.88;4246617;27;5864;-65
2022/03/22 16:21:12;;;;;;;;;;;;;;;13.17;39.77;97956.00;4248773;27;5865;-63
2022/03/22 16:23:15;;;;;;;;;;;;;;;13.23;39.66;97959.78;4249133;27;5699;-63
2022/03/22 16:25:18;;;;;;;;;;;;;;;13.23;39.51;97957.94;4249173;27;5700;-63
2022/03/22 16:27:20;;;;;;;;;;;;;;;13.21;39.09;97952.00;4247172;27;5574;-64
2022/03/22 16:29:28;;;;;;;;;;;;;;;13.23;39.86;97949.16;4231424;27;5649;-63
2022/03/22 16:31:30;;;;;;;;;;;;;;;13.21;40.13;97954.66;4217290;27;5664;-64
2022/03/22 16:38:13;;;;;;;;;;;;;;;13.12;40.33;97959.19;4234812;27;5673;-64